Íslenskir flugvellir

Veldu flugvelli í þeirri röð sem þeir eiga að birtast og styddu á hnappinn

Uppfært síðast 27.10.2021 - kl. 10:29

SIGMET síðustu 6 klst.

Engin SIGMET skeyti bárust síðustu 6 klst.

Egilsstaðir

METAR síðustu 3 klst

TímiSkeyti
2021-10-27 10.00METAR BIEG 271000Z 01006KT 9999 FEW004 SCT025 OVC040 05/04 Q0981
2021-10-27 09.00METAR BIEG 270900Z 03008KT 9999 -DZ FEW006 SCT020 OVC035 05/04 Q0981
2021-10-27 08.00METAR BIEG 270800Z 36013KT 9999 -DZ OVC024 05/04 Q0980

TAF

TAFBIEG2021-10-27 07.40Z27090903015G25KT 9999 -RA BKN025 OVC028 TX05/2712Z TNM01/2806Z TEMPO 2709/2712 4500 RADZ BR BKN012 BECMG 2713/2715 20010KT NSW SCT040 BECMG 2803/2805 VRB03KT

Allur vindur er réttvísandi bæði í Metar og frá sjálfvirkum veðurstöðvum




Aðrir tengdir vefir



Þetta vefsvæði byggir á Eplica